Twigg, Illinois
Current Conditions -  °F | °C
As of 10:15 PM on Friday 24 Oct 2014 (Local Time) from KHSB Reporting Station
Moderate Fog Moderate Fog  
Wind Chill: 49°   Ceiling: 200
Heat Index: 49°   Visibility: 0.25mi
Dew Point: 49°   Wind: 0mph
Humidity: 100%   Direction: NA
Pressure: 30.07"   Gusts: NA
Location:  37.9948°N, 88.5401°W
Report Text: KHSB 250315Z AUTO 00000KT 1/4SM FG VV002 09/09 A3007 RMK AO2 T00940094
Loading
Personal Weather Stations






























Interactive Weather Map New forecast layout! Learn more

10-Day Weather Forecast

Advertisements
Track Severe Weather on mobile